Time;durP1;ratioP1;P1;durP2;ratioP2;P2;SDS_P1;SDS_P2;PMS_P1;PMS_P2;Temp;Humidity;BMP_temperature;BMP_pressure;BME280_temperature;BME280_humidity;BME280_pressure;Samples;Min_cycle;Max_cycle;Signal;HPM_P1;HPM_P2
2021/09/16 00:00:18;56315.00;0.19;98.11;0.00;0.00;0.62;;;;;23.00;2.50;;;;;;2567868;55;978;-89
2021/09/16 00:02:46;115017.00;0.38;199.49;0.00;0.00;0.62;;;;;23.20;2.50;;;;;;2567854;55;992;-91
2021/09/16 00:05:14;0.00;0.00;0.62;0.00;0.00;0.62;;;;;23.30;1.90;;;;;;2560552;55;1322;-87
2021/09/16 00:07:41;970.00;0.00;2.30;0.00;0.00;0.62;;;;;23.50;1.00;;;;;;2573727;55;958;-89
2021/09/16 00:10:09;0.00;0.00;0.62;0.00;0.00;0.62;;;;;23.30;1.00;;;;;;2578205;55;966;-88
2021/09/16 00:12:36;0.00;0.00;0.62;0.00;0.00;0.62;;;;;23.10;1.10;;;;;;2573975;55;953;-88
2021/09/16 00:15:04;49664.00;0.17;86.61;0.00;0.00;0.62;;;;;23.20;1.60;;;;;;2569473;55;1324;-88
2021/09/16 00:17:31;74998.00;0.25;130.40;0.00;0.00;0.62;;;;;23.00;1.70;;;;;;2579066;55;1902;-88
2021/09/16 00:20:01;0.00;0.00;0.62;0.00;0.00;0.62;;;;;23.10;1.40;;;;;;2583912;55;897;-88
2021/09/16 00:22:29;0.00;0.00;0.62;0.00;0.00;0.62;;;;;23.10;1.40;;;;;;2574226;55;970;-87
2021/09/16 00:24:56;0.00;0.00;0.62;0.00;0.00;0.62;;;;;23.10;2.00;;;;;;2574764;55;1365;-89
2021/09/16 00:27:23;0.00;0.00;0.62;0.00;0.00;0.62;;;;;23.10;1.70;;;;;;2581753;55;934;-88
2021/09/16 00:29:50;0.00;0.00;0.62;0.00;0.00;0.62;;;;;23.10;1.10;;;;;;2583209;55;981;-88
2021/09/16 00:32:17;44766.00;0.15;78.13;0.00;0.00;0.62;;;;;23.10;1.90;;;;;;2574511;55;952;-89
2021/09/16 00:34:44;125353.00;0.42;217.32;22137.00;0.07;38.97;;;;;23.10;2.10;;;;;;2583432;55;1319;-89
2021/09/16 00:37:12;142415.00;0.47;246.73;76380.00;0.25;132.78;;;;;23.10;1.30;;;;;;2570374;55;1904;-88
2021/09/16 00:39:39;143745.00;0.48;249.03;0.00;0.00;0.62;;;;;23.10;1.90;;;;;;2570557;55;1015;-89
2021/09/16 00:42:06;50074.00;0.17;87.31;0.00;0.00;0.62;;;;;23.30;1.50;;;;;;2574700;55;1101;-89
2021/09/16 00:44:33;0.00;0.00;0.62;0.00;0.00;0.62;;;;;23.40;1.00;;;;;;2583019;55;1391;-88
2021/09/16 00:47:00;98893.00;0.33;171.66;23349.00;0.08;41.07;;;;;23.50;1.00;;;;;;2574814;55;961;-88
2021/09/16 00:49:28;0.00;0.00;0.62;0.00;0.00;0.62;;;;;23.50;1.00;;;;;;2570586;55;973;-87
2021/09/16 00:51:56;91346.00;0.30;158.63;0.00;0.00;0.62;;;;;23.40;1.00;;;;;;2583719;55;913;-88
2021/09/16 00:54:25;0.00;0.00;0.62;0.00;0.00;0.62;;;;;23.40;1.00;;;;;;2568604;55;1274;-88
2021/09/16 00:56:55;0.00;0.00;0.62;0.00;0.00;0.62;;;;;23.10;1.80;;;;;;2574822;55;1907;-89
2021/09/16 00:59:23;66370.00;0.22;115.49;0.00;0.00;0.62;;;;;23.00;2.40;;;;;;2583766;55;913;-88
2021/09/16 01:01:51;0.00;0.00;0.62;0.00;0.00;0.62;;;;;23.00;2.50;;;;;;2583894;55;939;-88
2021/09/16 01:04:18;0.00;0.00;0.62;0.00;0.00;0.62;;;;;23.20;1.00;;;;;;2574898;55;1472;-88
2021/09/16 01:06:47;0.00;0.00;0.62;0.00;0.00;0.62;;;;;23.40;1.10;;;;;;2574767;55;922;-88
2021/09/16 01:09:14;0.00;0.00;0.62;0.00;0.00;0.62;;;;;23.20;1.00;;;;;;2574867;55;936;-88
2021/09/16 01:11:42;341100.00;1.14;588.56;71165.00;0.24;123.77;;;;;23.00;1.60;;;;;;2583780;55;946;-88
2021/09/16 01:14:09;100749.00;0.34;174.86;0.00;0.00;0.62;;;;;22.90;1.60;;;;;;2583613;55;955;-88
2021/09/16 01:16:37;41744.00;0.14;72.91;0.00;0.00;0.62;;;;;22.90;2.20;;;;;;2583942;55;1374;-88
2021/09/16 01:19:04;0.00;0.00;0.62;0.00;0.00;0.62;;;;;22.90;2.10;;;;;;2570563;55;1899;-89
2021/09/16 01:21:32;190774.00;0.64;330.04;28931.00;0.10;50.73;;;;;22.80;1.70;;;;;;2574386;55;964;-88
2021/09/16 01:24:00;32886.00;0.11;57.58;0.00;0.00;0.62;;;;;22.80;1.60;;;;;;2567853;56;1098;-88
2021/09/16 01:26:27;112932.00;0.38;195.89;0.00;0.00;0.62;;;;;22.70;2.20;;;;;;2567989;56;1379;-88
2021/09/16 01:28:54;42233.00;0.14;73.75;0.00;0.00;0.62;;;;;22.50;2.70;;;;;;2561430;56;989;-89
2021/09/16 01:31:34;0.00;0.00;0.62;0.00;0.00;0.62;;;;;22.30;2.80;;;;;;2563667;56;948;-90
2021/09/16 01:34:03;258846.00;0.86;447.16;90125.00;0.30;156.52;;;;;21.60;4.20;;;;;;2563655;56;936;-88
2021/09/16 01:36:30;275579.00;0.92;475.94;82749.00;0.28;143.79;;;;;21.00;6.80;;;;;;2562763;56;1191;-89
2021/09/16 01:38:58;278291.00;0.93;480.60;80525.00;0.27;139.94;;;;;21.20;7.00;;;;;;2563526;56;1962;-89
2021/09/16 01:41:26;508645.00;1.70;876.71;198302.00;0.66;343.00;;;;;21.50;6.10;;;;;;2571426;55;922;-89
2021/09/16 01:43:53;216820.00;0.72;374.87;74369.00;0.25;129.31;;;;;21.90;6.70;;;;;;2578784;55;943;-88
2021/09/16 01:46:20;411558.00;1.37;709.68;93223.00;0.31;161.87;;;;;22.00;5.20;;;;;;2567829;55;1241;-89
2021/09/16 01:48:47;281153.00;0.94;485.52;117428.00;0.39;203.65;;;;;22.30;4.60;;;;;;2567878;56;946;-91
2021/09/16 01:51:14;180965.00;0.60;313.15;64582.00;0.22;112.40;;;;;22.50;4.20;;;;;;2567576;56;988;-88
2021/09/16 01:53:43;173270.00;0.58;299.90;78832.00;0.26;137.02;;;;;22.40;3.90;;;;;;2553366;56;968;-88
2021/09/16 01:56:10;217188.00;0.72;375.50;75557.00;0.25;131.36;;;;;22.40;4.40;;;;;;2563250;56;1371;-89
2021/09/16 01:58:38;175838.00;0.59;304.32;71885.00;0.24;125.02;;;;;22.30;3.80;;;;;;2567086;56;1949;-88
2021/09/16 02:01:06;167716.00;0.56;290.33;76613.00;0.26;133.19;;;;;21.90;4.20;;;;;;2560589;56;959;-89
2021/09/16 02:03:33;167658.00;0.56;290.23;67739.00;0.23;117.85;;;;;21.40;6.70;;;;;;2558187;56;997;-89
2021/09/16 02:06:00;384748.00;1.28;663.59;101051.00;0.34;175.39;;;;;21.20;6.80;;;;;;2559675;55;1321;-89
2021/09/16 02:08:28;321868.00;1.07;555.51;83786.00;0.28;145.58;;;;;21.10;6.80;;;;;;2568527;55;961;-88
2021/09/16 02:10:55;244530.00;0.82;422.54;85336.00;0.28;148.25;;;;;21.10;7.20;;;;;;2564087;55;944;-89
2021/09/16 02:13:22;385419.00;1.28;664.74;83624.00;0.28;145.30;;;;;21.30;7.50;;;;;;2572869;55;1002;-89
2021/09/16 02:15:50;175163.00;0.58;303.16;81549.00;0.27;141.71;;;;;21.60;6.80;;;;;;2560141;55;1375;-89
2021/09/16 02:18:17;166219.00;0.55;287.75;74862.00;0.25;130.16;;;;;21.80;5.70;;;;;;2574324;55;1953;-89
2021/09/16 02:20:44;372221.00;1.24;642.05;117272.00;0.39;203.38;;;;;21.90;6.50;;;;;;2583622;55;989;-89
2021/09/16 02:25:39;185305.00;0.62;320.62;69887.00;0.23;121.57;;;;;22.00;5.30;;;;;;2578474;55;1324;-91
2021/09/16 02:28:06;224510.00;0.75;388.10;70568.00;0.24;122.74;;;;;22.10;5.10;;;;;;2567529;56;938;-89
2021/09/16 02:30:33;324775.00;1.08;560.51;66926.00;0.22;116.45;;;;;22.10;4.50;;;;;;2567910;56;970;-90
2021/09/16 02:33:04;388930.00;1.30;670.78;117734.00;0.39;204.17;;;;;22.00;5.30;;;;;;2563559;56;997;-89
2021/09/16 02:35:32;220462.00;0.73;381.14;70904.00;0.24;123.32;;;;;22.30;4.80;;;;;;2557006;56;1176;-89
2021/09/16 02:37:59;279489.00;0.93;482.66;78327.00;0.26;136.15;;;;;22.30;4.20;;;;;;2553291;56;1944;-90
2021/09/16 02:40:26;189868.00;0.63;328.48;73936.00;0.25;128.56;;;;;22.20;4.60;;;;;;2557698;56;975;-90
2021/09/16 02:42:54;380075.00;1.27;655.55;154615.00;0.52;267.76;;;;;22.40;4.80;;;;;;2546844;56;959;-90
2021/09/16 02:45:22;242118.00;0.81;418.39;76377.00;0.25;132.78;;;;;22.50;4.20;;;;;;2538613;56;1365;-89
2021/09/16 02:47:49;345314.00;1.15;595.81;71583.00;0.24;124.50;;;;;22.60;3.70;;;;;;2547368;56;1006;-88
2021/09/16 02:50:17;373464.00;1.24;644.19;81270.00;0.27;141.23;;;;;22.80;3.60;;;;;;2542532;56;970;-89
2021/09/16 02:52:44;188960.00;0.63;326.92;71848.00;0.24;124.95;;;;;22.90;2.80;;;;;;2535356;56;1059;-89
2021/09/16 02:55:12;163614.00;0.55;283.27;71143.00;0.24;123.74;;;;;23.00;3.50;;;;;;2548442;56;1346;-89
2021/09/16 02:57:39;223168.00;0.74;385.79;68545.00;0.23;119.25;;;;;22.80;2.40;;;;;;2542511;56;1948;-89
2021/09/16 03:00:08;499163.00;1.66;860.38;79874.00;0.27;138.82;;;;;22.80;2.50;;;;;;2543858;56;1020;-89
2021/09/16 03:02:34;209263.00;0.70;361.87;70374.00;0.23;122.41;;;;;22.60;3.40;;;;;;2549061;56;928;-89
2021/09/16 03:05:01;361963.00;1.21;624.42;146832.00;0.49;254.35;;;;;22.40;3.50;;;;;;2557837;56;1294;-89
2021/09/16 03:07:30;222750.00;0.74;385.08;69403.00;0.23;120.73;;;;;22.40;4.80;;;;;;2559109;56;1031;-89
2021/09/16 03:09:57;214856.00;0.72;371.49;69863.00;0.23;121.52;;;;;22.20;4.10;;;;;;2559484;56;966;-89
2021/09/16 03:12:23;207497.00;0.69;358.83;75287.00;0.25;130.90;;;;;22.10;5.30;;;;;;2568157;56;1051;-89
2021/09/16 03:14:50;210401.00;0.70;363.83;70584.00;0.24;122.77;;;;;22.20;4.70;;;;;;2556508;55;1292;-89
2021/09/16 03:17:17;172547.00;0.58;298.65;80706.00;0.27;140.26;;;;;22.20;4.80;;;;;;2565508;55;981;-89
2021/09/16 03:19:44;300971.00;1.00;519.59;112611.00;0.38;195.34;;;;;22.40;4.40;;;;;;2569817;55;1911;-89
2021/09/16 03:22:13;575914.00;1.92;992.65;159636.00;0.53;276.41;;;;;22.40;4.40;;;;;;2569847;55;918;-89
2021/09/16 03:24:41;193302.00;0.64;334.39;72950.00;0.24;126.86;;;;;22.10;4.40;;;;;;2578813;55;1315;-88
2021/09/16 03:27:08;215870.00;0.72;373.24;78296.00;0.26;136.09;;;;;22.00;5.10;;;;;;2578897;55;1006;-89
2021/09/16 03:29:35;410504.00;1.37;707.86;122737.00;0.41;212.80;;;;;22.10;4.90;;;;;;2574072;55;954;-88
2021/09/16 03:32:02;178891.00;0.60;309.58;69908.00;0.23;121.60;;;;;21.90;5.30;;;;;;2573183;55;985;-88
2021/09/16 03:34:29;197103.00;0.66;340.94;76414.00;0.25;132.84;;;;;22.00;5.00;;;;;;2573194;55;1388;-89
2021/09/16 03:36:56;167740.00;0.56;290.37;75844.00;0.25;131.86;;;;;22.30;5.30;;;;;;2564577;55;925;-88
2021/09/16 03:39:24;445643.00;1.49;768.29;104504.00;0.35;181.35;;;;;22.40;4.20;;;;;;2562774;56;1913;-89
2021/09/16 03:41:53;282324.00;0.94;487.53;73677.00;0.25;128.11;;;;;22.50;3.70;;;;;;2557687;56;979;-89
2021/09/16 03:44:20;196239.00;0.65;339.45;73959.00;0.25;128.60;;;;;22.70;3.30;;;;;;2552516;56;1484;-88
2021/09/16 03:46:47;276982.00;0.92;478.35;73986.00;0.25;128.65;;;;;22.50;4.00;;;;;;2552725;56;983;-89
2021/09/16 03:49:15;212811.00;0.71;367.97;80262.00;0.27;139.49;;;;;22.70;4.10;;;;;;2548676;56;989;-88
2021/09/16 03:51:42;195196.00;0.65;337.65;70898.00;0.24;123.31;;;;;22.80;4.00;;;;;;2557740;56;958;-89
2021/09/16 03:54:09;301182.00;1.00;519.95;71197.00;0.24;123.83;;;;;23.00;3.50;;;;;;2557739;56;1022;-90
2021/09/16 03:56:36;232839.00;0.78;402.43;76513.00;0.26;133.01;;;;;23.10;3.20;;;;;;2549167;56;1389;-89
2021/09/16 03:59:04;316788.00;1.06;546.78;81540.00;0.27;141.70;;;;;23.10;3.20;;;;;;2558240;56;1898;-89
2021/09/16 04:01:31;209662.00;0.70;362.55;75201.00;0.25;130.75;;;;;23.20;2.80;;;;;;2563829;55;991;-88
2021/09/16 04:03:58;283821.00;0.95;490.11;58519.00;0.20;101.92;;;;;23.00;3.10;;;;;;2562792;56;979;-88
2021/09/16 04:06:25;268425.00;0.89;463.64;67777.00;0.23;117.92;;;;;23.10;3.30;;;;;;2555373;55;1281;-89
2021/09/16 04:08:52;495116.00;1.65;853.42;151010.00;0.50;261.55;;;;;23.20;3.00;;;;;;2564545;55;991;-89
2021/09/16 04:11:19;244175.00;0.81;421.93;69513.00;0.23;120.92;;;;;23.30;3.00;;;;;;2573217;55;977;-90
2021/09/16 04:13:46;327712.00;1.09;565.55;74145.00;0.25;128.92;;;;;23.40;2.80;;;;;;2573201;55;934;-89
2021/09/16 04:16:14;221240.00;0.74;382.48;64862.00;0.22;112.88;;;;;23.20;3.00;;;;;;2573160;55;1417;-88
2021/09/16 04:18:41;237677.00;0.79;410.76;74950.00;0.25;130.31;;;;;23.10;3.20;;;;;;2564542;55;1952;-90
2021/09/16 04:21:08;309566.00;1.03;534.36;93638.00;0.31;162.59;;;;;23.00;3.50;;;;;;2573721;55;1012;-90
2021/09/16 04:23:35;308269.00;1.03;532.13;75767.00;0.25;131.72;;;;;23.10;3.60;;;;;;2574070;55;975;-89
2021/09/16 04:26:02;165779.00;0.55;287.00;71646.00;0.24;124.60;;;;;23.10;2.90;;;;;;2578824;55;1410;-88
2021/09/16 04:28:29;378830.00;1.26;653.41;71433.00;0.24;124.24;;;;;23.10;3.40;;;;;;2574096;55;970;-89
2021/09/16 04:30:56;282531.00;0.94;487.89;68680.00;0.23;119.48;;;;;23.00;3.20;;;;;;2574014;55;970;-90
2021/09/16 04:33:24;163928.00;0.55;283.81;74178.00;0.25;128.98;;;;;22.70;4.30;;;;;;2574091;55;1007;-89
2021/09/16 04:35:51;118537504.00;395.13;67469432.00;70936.00;0.24;123.38;;;;;22.80;4.00;;;;;;2574008;55;1261;-88
2021/09/16 04:38:18;168948.00;0.56;292.45;75708.00;0.25;131.62;;;;;22.70;4.40;;;;;;2573988;55;1949;-88
2021/09/16 04:40:45;403257.00;1.34;695.40;91164.00;0.30;158.32;;;;;22.60;4.90;;;;;;2578871;55;925;-90
2021/09/16 04:43:12;291879.00;0.97;503.96;73977.00;0.25;128.63;;;;;22.60;4.70;;;;;;2569686;55;993;-88
2021/09/16 04:45:39;219210.00;0.73;378.98;77813.00;0.26;135.26;;;;;22.80;4.70;;;;;;2573062;55;1332;-90
2021/09/16 04:48:06;216226.00;0.72;373.85;77756.00;0.26;135.16;;;;;22.80;4.20;;;;;;2573204;55;983;-89
2021/09/16 04:50:35;177264.00;0.59;306.78;69226.00;0.23;120.42;;;;;22.70;3.90;;;;;;2573098;55;1043;-87
2021/09/16 04:53:02;286523.00;0.96;494.75;74094.00;0.25;128.83;;;;;22.30;4.50;;;;;;2568752;55;1308;-90
2021/09/16 04:55:29;177996.00;0.59;308.04;77587.00;0.26;134.87;;;;;22.30;5.80;;;;;;2573205;55;1420;-89
2021/09/16 04:57:56;158439.00;0.53;274.35;73533.00;0.25;127.87;;;;;22.30;5.30;;;;;;2568754;55;969;-88
2021/09/16 05:00:23;171457.00;0.57;296.78;74454.00;0.25;129.46;;;;;22.40;5.20;;;;;;2567904;56;1992;-88
2021/09/16 05:02:50;471422.00;1.57;812.64;78081.00;0.26;135.72;;;;;22.40;5.40;;;;;;2568065;56;934;-87
2021/09/16 05:05:17;338983.00;1.13;584.93;96327.00;0.32;167.23;;;;;22.60;4.60;;;;;;2567915;56;1357;-90
2021/09/16 05:07:46;228391.00;0.76;394.78;75421.00;0.25;131.13;;;;;22.50;4.80;;;;;;2568000;56;949;-89
2021/09/16 05:10:13;207145.00;0.69;358.22;68345.00;0.23;118.90;;;;;22.70;4.50;;;;;;2567856;56;972;-88
2021/09/16 05:12:40;162119.00;0.54;280.69;67615.00;0.23;117.64;;;;;22.90;4.20;;;;;;2563504;56;1010;-87
2021/09/16 05:15:07;217830.00;0.73;376.61;71675.00;0.24;124.65;;;;;23.00;3.90;;;;;;2562625;56;1357;-88
2021/09/16 05:17:34;190092.00;0.63;328.87;69121.00;0.23;120.24;;;;;23.10;3.10;;;;;;2550885;55;982;-89
2021/09/16 05:20:01;447791.00;1.49;771.98;96385.00;0.32;167.33;;;;;23.20;3.40;;;;;;2568572;55;1925;-90
2021/09/16 05:22:28;171155.00;0.57;296.26;75436.00;0.25;131.15;;;;;23.20;3.00;;;;;;2564447;55;964;-89
2021/09/16 05:24:56;184569.00;0.62;319.36;74453.00;0.25;129.45;;;;;23.30;3.20;;;;;;2562104;56;1379;-90
2021/09/16 05:27:26;207047.00;0.69;358.05;67140.00;0.22;116.82;;;;;23.40;3.60;;;;;;2573146;55;1059;-90
2021/09/16 05:29:53;171634.00;0.57;297.08;73014.00;0.24;126.97;;;;;23.40;3.10;;;;;;2560218;55;943;-89
2021/09/16 05:32:27;371433.00;1.24;640.70;81759.00;0.27;142.08;;;;;23.30;3.20;;;;;;2564734;55;1016;-91
2021/09/16 05:34:55;239317.00;0.80;413.58;71850.00;0.24;124.96;;;;;23.10;4.10;;;;;;2573901;55;1316;-89
2021/09/16 05:37:22;360300.00;1.20;621.56;99287.00;0.33;172.34;;;;;23.00;3.90;;;;;;2569706;55;1001;-89
2021/09/16 05:39:50;336882.00;1.12;581.31;98221.00;0.33;170.50;;;;;22.80;4.60;;;;;;2578689;55;1894;-89
2021/09/16 05:42:18;201133.00;0.67;347.87;78054.00;0.26;135.68;;;;;22.90;4.60;;;;;;2578749;55;1014;-89
2021/09/16 05:44:45;258852.00;0.86;447.17;67359.00;0.22;117.20;;;;;23.00;5.20;;;;;;2573757;55;1356;-89
2021/09/16 05:47:12;581112.00;1.94;1001.62;75312.00;0.25;130.94;;;;;23.10;3.80;;;;;;2572982;55;887;-90
2021/09/16 05:49:39;183826.00;0.61;318.08;74240.00;0.25;129.09;;;;;23.20;3.40;;;;;;2572870;55;942;-88
2021/09/16 05:52:06;239092.00;0.80;413.19;70496.00;0.23;122.62;;;;;23.10;4.60;;;;;;2560090;55;926;-88
2021/09/16 05:54:33;296835.00;0.99;512.48;72252.00;0.24;125.65;;;;;23.30;4.00;;;;;;2572986;55;1406;-88
2021/09/16 05:57:00;215789.00;0.72;373.10;73579.00;0.25;127.94;;;;;23.50;3.50;;;;;;2568084;55;1013;-87
2021/09/16 05:59:29;223574.00;0.75;386.49;73375.00;0.24;127.59;;;;;23.70;3.00;;;;;;2557450;56;1956;-88
2021/09/16 06:01:56;333366.00;1.11;575.27;53574.00;0.18;93.37;;;;;23.40;3.40;;;;;;2557639;56;993;-89
2021/09/16 06:04:23;272210.00;0.91;470.14;71039.00;0.24;123.56;;;;;23.50;3.40;;;;;;2558840;55;1360;-89
2021/09/16 06:06:50;308987.00;1.03;533.37;67557.00;0.23;117.54;;;;;23.60;3.40;;;;;;2567857;55;976;-88
2021/09/16 06:09:17;371622.00;1.24;641.02;106490.00;0.35;184.77;;;;;23.70;3.20;;;;;;2558797;55;974;-88
2021/09/16 06:11:44;271939.00;0.91;469.68;105225.00;0.35;182.59;;;;;23.70;3.30;;;;;;2562639;56;933;-90
2021/09/16 06:14:11;171026.00;0.57;296.03;71986.00;0.24;125.19;;;;;23.60;3.80;;;;;;2547411;56;975;-89
2021/09/16 06:16:39;309507.00;1.03;534.26;78636.00;0.26;136.68;;;;;23.50;4.10;;;;;;2548830;56;1347;-88
2021/09/16 06:19:06;201254.00;0.67;348.08;70732.00;0.24;123.03;;;;;23.70;2.80;;;;;;2558295;56;1909;-89
2021/09/16 06:21:33;204144.00;0.68;353.06;74498.00;0.25;129.53;;;;;23.80;2.90;;;;;;2557451;56;1013;-89
2021/09/16 06:24:01;233147.00;0.78;402.96;72948.00;0.24;126.85;;;;;23.80;1.90;;;;;;2552948;56;987;-88
2021/09/16 06:26:29;332218.00;1.11;573.30;76256.00;0.25;132.57;;;;;23.60;2.90;;;;;;2553329;56;1353;-89
2021/09/16 06:28:56;278711.00;0.93;481.32;70511.00;0.24;122.64;;;;;23.60;2.90;;;;;;2558168;56;978;-88
2021/09/16 06:31:23;205112.00;0.68;354.72;73564.00;0.25;127.92;;;;;23.60;3.10;;;;;;2552217;56;951;-88
2021/09/16 06:33:52;426525.00;1.42;735.41;77520.00;0.26;134.75;;;;;23.60;3.10;;;;;;2562739;56;911;-87
2021/09/16 06:36:19;307296.00;1.02;530.46;73864.00;0.25;128.44;;;;;23.60;3.10;;;;;;2553815;56;1349;-88
2021/09/16 06:38:46;196355.00;0.65;339.65;69372.00;0.23;120.68;;;;;23.70;3.60;;;;;;2558987;55;1952;-88
2021/09/16 06:41:13;179761.00;0.60;311.08;72995.00;0.24;126.94;;;;;23.80;5.40;;;;;;2562995;55;936;-88
2021/09/16 06:43:40;313131.00;1.04;540.49;122774.00;0.41;212.87;;;;;24.70;4.50;;;;;;2567551;55;1032;-88
2021/09/16 06:46:07;213906.00;0.71;369.86;80129.00;0.27;139.26;;;;;25.90;3.50;;;;;;2563342;55;1334;-89
2021/09/16 06:48:35;302494.00;1.01;522.21;71313.00;0.24;124.03;;;;;27.40;1.00;;;;;;2569092;55;958;-90
2021/09/16 06:51:03;460148.00;1.53;793.24;75792.00;0.25;131.77;;;;;28.30;1.00;;;;;;2578448;55;991;-90
2021/09/16 06:53:30;322828.00;1.08;557.16;61273.00;0.20;106.68;;;;;28.80;1.00;;;;;;2573595;55;990;-89
2021/09/16 06:55:58;221043.00;0.74;382.14;72791.00;0.24;126.58;;;;;29.90;1.00;;;;;;2572852;55;1416;-90
2021/09/16 06:58:25;441122.00;1.47;760.51;209386.00;0.70;362.08;;;;;30.40;1.00;;;;;;2572626;55;943;-90
2021/09/16 07:00:52;231195.00;0.77;399.60;63997.00;0.21;111.39;;;;;30.30;1.00;;;;;;2559751;55;1974;-90
2021/09/16 07:03:18;255150.00;0.85;440.81;71275.00;0.24;123.96;;;;;30.30;1.00;;;;;;2572965;55;986;-89
2021/09/16 07:05:45;278687.00;0.93;481.28;73300.00;0.24;127.46;;;;;30.10;1.00;;;;;;2570984;56;1366;-90
2021/09/16 07:08:14;194699.00;0.65;336.80;66969.00;0.22;116.52;;;;;29.80;1.00;;;;;;2572718;55;1054;-89
2021/09/16 07:10:41;220185.00;0.73;380.66;54139.00;0.18;94.34;;;;;29.90;1.00;;;;;;2572918;55;996;-89
2021/09/16 07:13:08;233893.00;0.78;404.25;73499.00;0.24;127.81;;;;;30.50;1.00;;;;;;2573479;55;964;-90
2021/09/16 07:15:36;301042.00;1.00;519.71;68774.00;0.23;119.64;;;;;31.10;1.00;;;;;;2573823;55;1413;-89
2021/09/16 07:18:03;311809.00;1.04;538.22;72275.00;0.24;125.69;;;;;31.10;1.00;;;;;;2578662;55;967;-90
2021/09/16 07:20:32;190827.00;0.64;330.13;73654.00;0.25;128.07;;;;;30.60;1.00;;;;;;2569114;55;1891;-89
2021/09/16 07:22:59;281203.00;0.94;485.61;65647.00;0.22;114.24;;;;;29.60;1.00;;;;;;2576364;55;1018;-88
2021/09/16 07:25:27;370409.00;1.23;638.94;72164.00;0.24;125.50;;;;;29.00;1.00;;;;;;2578388;55;1273;-89
2021/09/16 07:27:55;497090.00;1.66;856.81;119922.00;0.40;207.95;;;;;28.70;1.00;;;;;;2578319;55;961;-90
2021/09/16 07:30:22;331293.00;1.10;571.71;71199.00;0.24;123.83;;;;;28.00;1.00;;;;;;2572073;55;1070;-87
2021/09/16 07:32:49;290476.00;0.97;501.55;67909.00;0.23;118.15;;;;;27.20;1.00;;;;;;2578550;55;958;-88
2021/09/16 07:35:16;560491.00;1.87;966.05;71527.00;0.24;124.40;;;;;26.70;1.00;;;;;;2565245;56;1278;-87
2021/09/16 07:37:43;332342.00;1.11;573.51;71512.00;0.24;124.37;;;;;26.30;1.00;;;;;;2557332;56;978;-88
2021/09/16 07:40:11;402122.00;1.34;693.45;72199.00;0.24;125.56;;;;;26.50;1.00;;;;;;2557266;56;1950;-88
2021/09/16 07:42:40;203687.00;0.68;352.27;55306.00;0.18;96.36;;;;;26.70;1.00;;;;;;2567583;56;1001;-88
2021/09/16 07:45:09;351459.00;1.17;606.37;69887.00;0.23;121.57;;;;;27.00;1.00;;;;;;2567777;56;1343;-88
2021/09/16 07:47:35;467119.00;1.56;805.23;114563.00;0.38;198.70;;;;;27.10;1.00;;;;;;2554874;56;970;-87
2021/09/16 07:50:03;443919.00;1.48;765.32;73555.00;0.25;127.90;;;;;27.40;1.00;;;;;;2563375;56;936;-87
2021/09/16 07:52:29;196529.00;0.66;339.95;63832.00;0.21;111.10;;;;;27.40;1.00;;;;;;2569082;55;954;-88
2021/09/16 07:54:56;295625.00;0.99;510.40;70197.00;0.23;122.10;;;;;27.30;1.00;;;;;;2573783;55;1404;-89
2021/09/16 07:57:23;298993.00;1.00;516.19;122224.00;0.41;211.92;;;;;27.50;1.00;;;;;;2578497;55;1019;-89
2021/09/16 07:59:52;233220.00;0.78;403.09;64553.00;0.22;112.35;;;;;27.40;1.00;;;;;;2572842;55;1961;-86
2021/09/16 08:02:19;782458.00;2.61;1350.55;217383.00;0.72;375.84;;;;;27.50;1.00;;;;;;2564341;55;937;-88
2021/09/16 08:04:46;461998.00;1.54;796.42;164476.00;0.55;284.75;;;;;27.70;1.00;;;;;;2568308;55;1226;-88
2021/09/16 08:07:13;397889.00;1.33;686.18;80977.00;0.27;140.72;;;;;27.90;1.00;;;;;;2560043;55;943;-89
2021/09/16 08:09:41;357021.00;1.19;615.93;67350.00;0.22;117.18;;;;;27.90;1.00;;;;;;2564398;55;958;-89
2021/09/16 08:12:08;461400.00;1.54;795.39;73999.00;0.25;128.67;;;;;27.90;1.00;;;;;;2562435;56;1036;-89
2021/09/16 08:14:43;455495.00;1.52;785.23;73217.00;0.24;127.32;;;;;28.00;1.00;;;;;;2562907;56;1402;-87
2021/09/16 08:17:12;334047.00;1.11;576.44;73718.00;0.25;128.18;;;;;28.00;1.00;;;;;;2564550;55;971;-89
2021/09/16 08:19:41;492140.00;1.64;848.29;70625.00;0.24;122.84;;;;;27.90;1.00;;;;;;2559888;55;1952;-88
2021/09/16 08:22:08;330144.00;1.10;569.73;71614.00;0.24;124.55;;;;;27.90;1.00;;;;;;2564326;55;929;-88
2021/09/16 08:24:35;453279.00;1.51;781.42;61634.00;0.21;107.30;;;;;27.60;1.00;;;;;;2572604;55;1326;-88
2021/09/16 08:27:03;490614.00;1.64;845.67;74513.00;0.25;129.56;;;;;27.30;1.00;;;;;;2572743;55;978;-89
2021/09/16 08:29:31;309119.00;1.03;533.60;72798.00;0.24;126.60;;;;;27.00;1.00;;;;;;2559444;56;933;-88
2021/09/16 08:31:58;456103.00;1.52;786.28;63631.00;0.21;110.75;;;;;27.00;1.00;;;;;;2567958;56;1006;-88
2021/09/16 08:34:29;336325.00;1.12;580.36;74838.00;0.25;130.12;;;;;27.30;1.00;;;;;;2567340;56;1270;-88
2021/09/16 08:36:57;364145.00;1.21;628.17;9190.00;0.03;16.55;;;;;27.20;1.00;;;;;;2563572;56;990;-85
2021/09/16 08:39:24;147072.00;0.49;254.76;0.00;0.00;0.62;;;;;27.30;1.00;;;;;;2562639;56;1956;-84
2021/09/16 08:41:51;195121.00;0.65;337.52;0.00;0.00;0.62;;;;;27.40;1.00;;;;;;2549440;56;987;-85
2021/09/16 08:44:19;267451.00;0.89;461.96;15844.00;0.05;28.07;;;;;27.10;1.00;;;;;;2549688;56;1296;-85
2021/09/16 08:46:47;280033.00;0.93;483.59;0.00;0.00;0.62;;;;;26.60;1.00;;;;;;2550654;56;1000;-84
2021/09/16 08:49:14;108450.00;0.36;188.16;0.00;0.00;0.62;;;;;26.60;1.00;;;;;;2567563;56;938;-84
2021/09/16 08:51:43;336972.00;1.12;581.47;46738.00;0.16;81.54;;;;;26.40;1.00;;;;;;2565013;55;909;-85
2021/09/16 08:54:12;303071.00;1.01;523.20;0.00;0.00;0.62;;;;;26.20;1.00;;;;;;2578101;55;1002;-85
2021/09/16 08:56:41;324136.00;1.08;559.41;56085.00;0.19;97.71;;;;;25.90;1.00;;;;;;2578018;55;1241;-87
2021/09/16 08:59:09;161478.00;0.54;279.59;0.00;0.00;0.62;;;;;25.70;1.00;;;;;;2576526;55;1037;-86
2021/09/16 09:01:38;202324.00;0.67;349.92;0.00;0.00;0.62;;;;;25.60;1.00;;;;;;2572981;55;1962;-87
2021/09/16 09:04:05;291957.00;0.97;504.09;0.00;0.00;0.62;;;;;25.50;1.90;;;;;;2564480;55;1030;-86
2021/09/16 09:09:15;29195.00;0.10;51.19;0.00;0.00;0.62;;;;;25.00;3.70;;;;;;2577175;56;421;-89
2021/09/16 09:14:18;55408.00;0.18;96.54;0.00;0.00;0.62;;;;;24.40;3.80;;;;;;2577278;56;405;-86
2021/09/16 09:16:45;50433.00;0.17;87.94;0.00;0.00;0.62;;;;;24.00;3.30;;;;;;2572085;56;1116;-89
2021/09/16 09:19:16;141791.00;0.47;245.66;0.00;0.00;0.62;;;;;23.80;3.90;;;;;;2571447;56;1047;-87
2021/09/16 09:21:44;118675.00;0.40;205.80;0.00;0.00;0.62;;;;;23.60;3.90;;;;;;2571430;56;1958;-87
2021/09/16 09:24:13;31448.00;0.10;55.09;0.00;0.00;0.62;;;;;23.50;4.60;;;;;;2573545;55;1582;-87
2021/09/16 09:26:41;26486.00;0.09;46.50;0.00;0.00;0.62;;;;;23.70;3.90;;;;;;2573488;55;1273;-86
2021/09/16 09:29:16;219472.00;0.73;379.44;0.00;0.00;0.62;;;;;23.70;3.30;;;;;;2571351;56;1016;-86
2021/09/16 09:31:52;185837.00;0.62;321.54;0.00;0.00;0.62;;;;;23.80;3.60;;;;;;2571334;56;973;-87
2021/09/16 09:34:27;72766.00;0.24;126.54;0.00;0.00;0.62;;;;;23.90;3.30;;;;;;2573519;55;1636;-86
2021/09/16 09:37:07;22600.00;0.08;39.77;0.00;0.00;0.62;;;;;24.00;2.90;;;;;;2571396;56;1101;-86
2021/09/16 09:39:35;80913.00;0.27;140.61;0.00;0.00;0.62;;;;;24.10;2.20;;;;;;2571352;56;1894;-86
2021/09/16 09:42:16;0.00;0.00;0.62;0.00;0.00;0.62;;;;;24.20;3.40;;;;;;2571417;56;1096;-87
2021/09/16 09:44:43;0.00;0.00;0.62;0.00;0.00;0.62;;;;;24.30;2.90;;;;;;2573561;55;1378;-86
2021/09/16 09:47:10;27630.00;0.09;48.48;0.00;0.00;0.62;;;;;24.50;2.50;;;;;;2573532;55;1000;-86